createdAt,value
2019-03-26T16:43:56.430Z,7.35
2019-03-26T16:44:56.193Z,7.31
2019-03-26T16:45:56.226Z,7.27
2019-03-26T16:46:56.203Z,7.27
2019-03-26T16:47:56.196Z,7.25
2019-03-26T16:48:56.274Z,7.22
2019-03-26T16:49:56.197Z,7.25
2019-03-26T16:50:56.223Z,7.22
2019-03-26T16:51:56.229Z,7.20
2019-03-26T16:52:56.226Z,7.19
2019-03-26T16:53:56.227Z,7.11
2019-03-26T16:54:56.260Z,7.05
2019-03-26T16:55:56.191Z,7.03
2019-03-26T16:56:56.232Z,7.00
2019-03-26T16:57:56.252Z,6.97
2019-03-26T16:58:56.234Z,6.93
2019-03-26T16:59:56.224Z,6.91
2019-03-26T17:00:56.282Z,6.87
2019-03-26T17:01:56.225Z,6.84
2019-03-26T17:02:56.233Z,6.76
2019-03-26T17:03:56.273Z,6.72
2019-03-26T17:04:56.301Z,6.70
2019-03-26T17:05:56.244Z,6.70
2019-03-26T17:06:56.253Z,6.68
2019-03-26T17:07:56.211Z,6.63
2019-03-26T17:08:56.257Z,6.61
2019-03-26T17:09:56.240Z,6.60
2019-03-26T17:10:56.221Z,6.60
2019-03-26T17:12:03.002Z,6.58
2019-03-26T17:12:56.274Z,6.59
2019-03-26T17:13:56.254Z,6.59
2019-03-26T17:14:56.225Z,6.58
2019-03-26T17:15:56.287Z,6.55
2019-03-26T17:16:56.225Z,6.55
2019-03-26T17:17:56.236Z,6.53
2019-03-26T17:18:56.263Z,6.50
2019-03-26T17:19:56.220Z,6.50
2019-03-26T17:20:56.240Z,6.49
2019-03-26T17:21:56.247Z,6.41
2019-03-26T17:22:56.242Z,6.35
2019-03-26T17:23:56.261Z,6.32
2019-03-26T17:24:56.260Z,6.31
2019-03-26T17:25:56.244Z,6.31
2019-03-26T17:26:56.246Z,6.30
2019-03-26T17:27:56.257Z,6.31
2019-03-26T17:28:56.248Z,6.34
2019-03-26T17:29:56.238Z,6.32
2019-03-26T17:30:56.289Z,6.26
2019-03-26T17:31:56.239Z,6.12
2019-03-26T17:32:56.241Z,5.97
2019-03-26T17:33:56.288Z,5.68
2019-03-26T17:34:56.247Z,5.33
2019-03-26T17:35:56.260Z,5.35
2019-03-26T17:36:56.299Z,5.32
2019-03-26T17:37:59.942Z,5.24
2019-03-26T17:38:56.265Z,5.20
2019-03-26T17:39:56.291Z,5.09
2019-03-26T17:40:56.249Z,5.04
2019-03-26T17:41:56.360Z,5.01
2019-03-26T17:42:56.366Z,4.88
2019-03-26T17:43:56.279Z,4.82
2019-03-26T17:44:58.353Z,4.82
2019-03-26T17:45:56.291Z,4.86
2019-03-26T17:46:56.237Z,4.93
2019-03-26T17:47:56.516Z,4.98
2019-03-26T17:48:56.286Z,5.00
2019-03-26T17:49:56.468Z,5.00
2019-03-26T17:50:56.244Z,5.10
2019-03-26T17:51:56.282Z,5.20
2019-03-26T17:52:56.251Z,5.22
2019-03-26T17:53:56.300Z,5.02
2019-03-26T17:54:56.310Z,4.80
2019-03-26T17:55:56.263Z,4.73
2019-03-26T17:56:56.280Z,4.58
2019-03-26T17:57:56.359Z,4.52
2019-03-26T17:58:56.244Z,4.39
2019-03-26T17:59:56.295Z,4.28
2019-03-26T18:00:56.301Z,4.17
2019-03-26T18:01:56.279Z,4.04
2019-03-26T18:02:56.254Z,3.94
2019-03-26T18:03:56.286Z,3.82
2019-03-26T18:04:56.289Z,3.82
2019-03-26T18:05:56.294Z,3.75
2019-03-26T18:06:56.285Z,3.69
2019-03-26T18:07:56.275Z,3.61
2019-03-26T18:08:56.276Z,3.51
2019-03-26T18:09:56.340Z,3.46
2019-03-26T18:10:56.287Z,3.42
2019-03-26T18:11:56.265Z,3.33
2019-03-26T18:12:56.313Z,3.31
2019-03-26T18:13:56.286Z,3.29
2019-03-26T18:14:56.305Z,3.37
2019-03-26T18:15:56.308Z,3.34
2019-03-26T18:16:56.286Z,3.34
2019-03-26T18:17:56.290Z,3.42
2019-03-26T18:18:56.299Z,3.40
2019-03-26T18:19:56.299Z,3.38
2019-03-26T18:20:56.302Z,3.41
2019-03-26T18:21:56.297Z,3.49
2019-03-26T18:22:56.284Z,3.56
2019-03-26T18:23:56.259Z,3.64
2019-03-26T18:24:56.331Z,3.70
2019-03-26T18:25:56.283Z,3.65
2019-03-26T18:26:56.270Z,3.55
2019-03-26T18:27:56.319Z,3.42
2019-03-26T18:28:56.326Z,3.37
2019-03-26T18:29:56.322Z,3.22
2019-03-26T18:30:56.310Z,3.20
2019-03-26T18:31:56.294Z,3.23
2019-03-26T18:32:56.303Z,3.24
2019-03-26T18:33:56.343Z,3.26
2019-03-26T18:34:56.357Z,3.33
2019-03-26T18:35:56.440Z,3.37
2019-03-26T18:36:56.425Z,3.43
2019-03-26T18:37:56.366Z,3.48
2019-03-26T18:38:56.399Z,3.49
2019-03-26T18:39:56.421Z,3.49
2019-03-26T18:40:56.377Z,3.47
2019-03-26T18:41:56.410Z,3.48
2019-03-26T18:42:56.447Z,3.51
2019-03-26T18:43:56.417Z,3.54
2019-03-26T18:44:56.485Z,3.57
2019-03-26T18:45:56.538Z,3.55
2019-03-26T18:46:56.523Z,3.53
2019-03-26T18:47:56.523Z,3.55
2019-03-26T18:48:56.481Z,3.54
2019-03-26T18:49:56.499Z,3.50
2019-03-26T18:50:56.492Z,3.49
2019-03-26T18:51:56.561Z,3.47
2019-03-26T18:52:56.542Z,3.40
2019-03-26T18:53:56.571Z,3.33
2019-03-26T18:54:56.676Z,3.34
2019-03-26T18:55:56.606Z,3.34
2019-03-26T18:56:56.646Z,3.29
2019-03-26T18:57:56.728Z,3.26
2019-03-26T18:58:56.636Z,3.23
2019-03-26T18:59:56.631Z,3.23
2019-03-26T19:00:56.651Z,3.21
2019-03-26T19:01:56.611Z,3.19
2019-03-26T19:02:56.658Z,3.19
2019-03-26T19:03:56.767Z,3.21
2019-03-26T19:04:56.681Z,3.15
2019-03-26T19:05:56.704Z,3.12
2019-03-26T19:06:56.745Z,3.10
2019-03-26T19:07:56.770Z,3.14
2019-03-26T19:08:56.780Z,3.19
2019-03-26T19:09:56.832Z,3.20
2019-03-26T19:10:56.748Z,3.35
2019-03-26T19:11:56.746Z,3.42
2019-03-26T19:12:57.350Z,3.40
2019-03-26T19:13:56.810Z,3.37
2019-03-26T19:14:56.789Z,3.37
2019-03-26T19:15:56.830Z,3.41
2019-03-26T19:16:56.827Z,3.41
2019-03-26T19:17:56.829Z,3.41
2019-03-26T19:18:56.915Z,3.40
2019-03-26T19:19:58.427Z,3.43
2019-03-26T19:21:02.438Z,3.42
2019-03-26T19:21:56.894Z,3.44
2019-03-26T19:22:56.887Z,3.45
2019-03-26T19:24:03.864Z,3.47
2019-03-26T19:24:56.926Z,3.50
2019-03-26T19:25:56.893Z,3.47
2019-03-26T19:26:56.912Z,3.46
2019-03-26T19:27:56.956Z,3.46
2019-03-26T19:28:56.895Z,3.45
2019-03-26T19:29:56.894Z,3.44
2019-03-26T19:30:56.921Z,3.43
2019-03-26T19:31:56.892Z,3.37
2019-03-26T19:32:57.869Z,3.38
2019-03-26T19:33:56.962Z,3.36
2019-03-26T19:34:56.930Z,3.43
2019-03-26T19:35:56.896Z,3.42
2019-03-26T19:36:56.944Z,3.42
2019-03-26T19:37:56.918Z,3.44
2019-03-26T19:38:56.949Z,3.53
2019-03-26T19:39:56.945Z,3.52
2019-03-26T19:40:56.901Z,3.50
2019-03-26T19:41:56.911Z,3.52
2019-03-26T19:43:09.744Z,3.55
2019-03-26T19:43:56.912Z,3.59
2019-03-26T19:44:56.925Z,3.60
2019-03-26T19:45:56.960Z,3.61
2019-03-26T19:46:56.918Z,3.62
2019-03-26T19:47:56.931Z,3.69
2019-03-26T19:48:56.956Z,3.69
2019-03-26T19:49:56.899Z,3.68
2019-03-26T19:50:56.943Z,3.70
2019-03-26T19:51:56.921Z,3.64
2019-03-26T19:52:56.920Z,3.59
2019-03-26T19:53:56.913Z,3.60
2019-03-26T19:54:56.936Z,3.60
2019-03-26T19:55:56.935Z,3.56
2019-03-26T19:56:56.954Z,3.59
2019-03-26T19:57:56.949Z,3.57
2019-03-26T19:58:56.908Z,3.54
2019-03-26T19:59:56.931Z,3.57
2019-03-26T20:00:56.957Z,3.59
2019-03-26T20:01:56.949Z,3.57
2019-03-26T20:02:56.926Z,3.62
2019-03-26T20:03:56.997Z,3.64
2019-03-26T20:04:56.928Z,3.70
2019-03-26T20:05:56.941Z,3.71
2019-03-26T20:06:56.999Z,3.73
2019-03-26T20:07:56.921Z,3.74
2019-03-26T20:08:56.962Z,3.83
2019-03-26T20:09:56.966Z,3.88
2019-03-26T20:10:56.920Z,3.92
2019-03-26T20:11:56.960Z,4.00
2019-03-26T20:12:56.956Z,4.03
2019-03-26T20:13:56.954Z,4.09
2019-03-26T20:14:56.927Z,4.26
2019-03-26T20:15:56.950Z,4.37
2019-03-26T20:16:56.962Z,4.37
2019-03-26T20:17:56.955Z,4.33
2019-03-26T20:18:56.982Z,4.30
2019-03-26T20:19:56.955Z,4.30
2019-03-26T20:20:56.930Z,4.34
2019-03-26T20:21:56.974Z,4.49
2019-03-26T20:22:56.953Z,4.73
2019-03-26T20:23:56.941Z,4.95
2019-03-26T20:24:56.968Z,5.20
2019-03-26T20:25:56.933Z,5.38
2019-03-26T20:26:56.958Z,5.44
2019-03-26T20:27:56.975Z,5.53
2019-03-26T20:28:56.944Z,5.61
2019-03-26T20:29:56.942Z,5.72
2019-03-26T20:30:56.974Z,5.69
2019-03-26T20:31:56.932Z,5.69
2019-03-26T20:32:56.959Z,5.70
2019-03-26T20:33:57.045Z,5.77
2019-03-26T20:34:56.943Z,5.81
2019-03-26T20:35:56.931Z,5.83
2019-03-26T20:36:56.980Z,5.82
2019-03-26T20:37:57.041Z,5.77
2019-03-26T20:38:57.016Z,5.83
2019-03-26T20:39:56.972Z,5.94
2019-03-26T20:40:56.950Z,5.92
2019-03-26T20:41:56.950Z,5.94
2019-03-26T20:42:56.985Z,5.91
2019-03-26T20:43:56.979Z,5.83
2019-03-26T20:44:56.964Z,5.78
2019-03-26T20:45:56.993Z,5.82
2019-03-26T20:46:56.957Z,5.88
2019-03-26T20:47:56.973Z,5.86
2019-03-26T20:48:57.006Z,5.68
2019-03-26T20:49:56.979Z,5.63
2019-03-26T20:50:57.387Z,5.57
2019-03-26T20:51:56.999Z,5.43
2019-03-26T20:52:56.934Z,5.47
2019-03-26T20:53:56.955Z,5.53
2019-03-26T20:54:57.001Z,5.57
2019-03-26T20:55:56.951Z,5.52
2019-03-26T20:56:56.942Z,5.41
2019-03-26T20:57:56.993Z,5.46
2019-03-26T20:58:56.958Z,5.49
2019-03-26T20:59:57.002Z,5.47
2019-03-26T21:00:56.995Z,5.42
2019-03-26T21:01:56.959Z,5.24
2019-03-26T21:02:56.966Z,5.09
2019-03-26T21:03:57.011Z,4.90
2019-03-26T21:04:56.972Z,4.95
2019-03-26T21:05:56.954Z,4.91
2019-03-26T21:06:57.014Z,4.85
2019-03-26T21:07:56.977Z,4.88
2019-03-26T21:08:56.967Z,4.95
2019-03-26T21:09:57.008Z,4.96
2019-03-26T21:10:56.967Z,4.95
2019-03-26T21:11:56.988Z,4.99
2019-03-26T21:12:56.947Z,5.15
2019-03-26T21:13:56.965Z,5.21
2019-03-26T21:14:56.999Z,5.14
2019-03-26T21:15:57.713Z,5.08
2019-03-26T21:16:56.993Z,5.07
2019-03-26T21:17:56.984Z,5.00
2019-03-26T21:18:57.011Z,5.03
2019-03-26T21:19:57.014Z,5.03
2019-03-26T21:20:57.059Z,5.04
2019-03-26T21:21:57.045Z,5.05
2019-03-26T21:22:56.970Z,5.03
2019-03-26T21:23:57.003Z,5.19
2019-03-26T21:24:56.974Z,5.46
2019-03-26T21:25:57.001Z,5.40
2019-03-26T21:26:56.978Z,5.39
2019-03-26T21:27:57.033Z,5.32
2019-03-26T21:28:57.009Z,5.31
2019-03-26T21:30:09.713Z,5.26
2019-03-26T21:30:57.046Z,5.21
2019-03-26T21:31:56.995Z,5.21
2019-03-26T21:32:57.008Z,5.21
2019-03-26T21:33:57.044Z,5.25
2019-03-26T21:34:57.051Z,5.25
2019-03-26T21:35:56.991Z,5.39
2019-03-26T21:36:57.021Z,5.34
2019-03-26T21:37:56.981Z,5.39
2019-03-26T21:38:56.997Z,5.39
2019-03-26T21:39:57.038Z,5.38
2019-03-26T21:40:57.016Z,5.39
2019-03-26T21:41:56.999Z,5.40
2019-03-26T21:42:57.019Z,5.43
2019-03-26T21:44:04.216Z,5.40
2019-03-26T21:44:57.028Z,5.43
2019-03-26T21:45:57.057Z,5.49
2019-03-26T21:46:56.997Z,5.56
2019-03-26T21:47:57.011Z,5.58
2019-03-26T21:48:57.043Z,5.60
2019-03-26T21:49:56.991Z,5.66
2019-03-26T21:50:56.996Z,5.68
2019-03-26T21:51:57.041Z,5.67
2019-03-26T21:52:57.018Z,5.63
2019-03-26T21:53:57.039Z,5.62
2019-03-26T21:54:57.028Z,5.68
2019-03-26T21:56:06.190Z,5.71
2019-03-26T21:56:57.029Z,5.83
2019-03-26T21:57:57.095Z,5.82
2019-03-26T21:58:57.022Z,5.73
2019-03-26T21:59:56.991Z,5.80
2019-03-26T22:00:57.034Z,5.83
2019-03-26T22:01:56.989Z,5.71
2019-03-26T22:02:56.988Z,5.44
2019-03-26T22:03:57.068Z,5.63
2019-03-26T22:04:56.998Z,5.80
2019-03-26T22:05:57.029Z,5.89
2019-03-26T22:06:57.043Z,5.81
2019-03-26T22:07:57.002Z,5.75
2019-03-26T22:08:57.013Z,5.65
2019-03-26T22:09:57.042Z,5.58
2019-03-26T22:10:57.012Z,5.54
2019-03-26T22:11:57.016Z,5.46
2019-03-26T22:12:57.034Z,5.44
2019-03-26T22:13:57.023Z,5.44
2019-03-26T22:14:57.015Z,5.46
2019-03-26T22:15:57.058Z,5.48
2019-03-26T22:16:57.039Z,5.45
2019-03-26T22:17:57.022Z,5.38
2019-03-26T22:18:57.025Z,5.39
2019-03-26T22:19:57.000Z,5.55
2019-03-26T22:20:57.007Z,5.56
2019-03-26T22:21:57.060Z,5.66
2019-03-26T22:22:57.196Z,5.77
2019-03-26T22:23:57.053Z,5.81
2019-03-26T22:24:57.045Z,5.76
2019-03-26T22:25:57.045Z,5.74
2019-03-26T22:26:57.044Z,5.71
2019-03-26T22:27:57.073Z,5.69
2019-03-26T22:28:57.050Z,5.67
2019-03-26T22:29:57.051Z,5.63
2019-03-26T22:30:57.063Z,5.60
2019-03-26T22:31:57.018Z,5.56
2019-03-26T22:32:57.041Z,5.50
2019-03-26T22:33:57.081Z,5.43
2019-03-26T22:34:57.053Z,5.30
2019-03-26T22:35:57.020Z,5.27
2019-03-26T22:36:57.082Z,5.29
2019-03-26T22:37:57.020Z,5.25
2019-03-26T22:38:57.051Z,5.18
2019-03-26T22:39:57.084Z,5.12
2019-03-26T22:40:57.051Z,5.13
2019-03-26T22:41:57.071Z,5.09
2019-03-26T22:42:57.081Z,5.17
2019-03-26T22:43:57.022Z,5.15
2019-03-26T22:44:57.019Z,5.16
2019-03-26T22:45:57.078Z,5.11
2019-03-26T22:46:57.063Z,5.12
2019-03-26T22:47:57.046Z,5.13
2019-03-26T22:48:57.092Z,4.99
2019-03-26T22:49:57.344Z,4.86
2019-03-26T22:50:57.073Z,4.84
2019-03-26T22:51:57.094Z,4.82
2019-03-26T22:52:57.062Z,4.80
2019-03-26T22:53:57.049Z,4.79
2019-03-26T22:54:57.068Z,4.72
2019-03-26T22:55:57.051Z,4.67
2019-03-26T22:56:57.022Z,4.66
2019-03-26T22:57:57.073Z,4.63
2019-03-26T22:58:57.053Z,4.62
2019-03-26T22:59:57.077Z,4.63
2019-03-26T23:00:57.056Z,4.64
2019-03-26T23:01:57.057Z,4.60
2019-03-26T23:02:57.051Z,4.60
2019-03-26T23:03:57.084Z,4.58
2019-03-26T23:04:57.081Z,4.62
2019-03-26T23:05:57.063Z,4.58
2019-03-26T23:06:57.087Z,4.59
2019-03-26T23:07:57.024Z,4.55
2019-03-26T23:08:57.027Z,4.51
2019-03-26T23:09:57.076Z,4.45
2019-03-26T23:10:57.063Z,4.50
2019-03-26T23:11:57.062Z,4.55
2019-03-26T23:12:57.132Z,4.56
2019-03-26T23:13:57.067Z,4.54
2019-03-26T23:14:57.053Z,4.59
2019-03-26T23:15:57.092Z,4.62
2019-03-26T23:16:57.051Z,4.69
2019-03-26T23:17:57.050Z,4.70
2019-03-26T23:18:57.090Z,4.68
2019-03-26T23:19:57.052Z,4.67
2019-03-26T23:20:57.068Z,4.62
2019-03-26T23:21:57.098Z,4.58
2019-03-26T23:22:57.089Z,4.55
2019-03-26T23:23:57.039Z,4.54
2019-03-26T23:24:57.090Z,4.49
2019-03-26T23:25:57.130Z,4.45
2019-03-26T23:26:57.090Z,4.45
2019-03-26T23:27:57.083Z,4.43
2019-03-26T23:28:57.114Z,4.44
2019-03-26T23:29:57.050Z,4.45
2019-03-26T23:30:57.155Z,4.50
2019-03-26T23:31:57.066Z,4.54
2019-03-26T23:32:57.068Z,4.61
2019-03-26T23:33:57.110Z,4.66
2019-03-26T23:34:57.072Z,4.67
2019-03-26T23:35:57.108Z,4.71
2019-03-26T23:36:57.109Z,4.87
2019-03-26T23:37:57.052Z,5.08
2019-03-26T23:38:57.091Z,5.24
2019-03-26T23:39:57.113Z,5.34
2019-03-26T23:40:57.090Z,5.39
2019-03-26T23:41:57.106Z,5.51
2019-03-26T23:42:57.099Z,5.79
2019-03-26T23:43:57.048Z,5.93
2019-03-26T23:44:58.567Z,6.06
2019-03-26T23:45:57.118Z,6.14
2019-03-26T23:46:57.087Z,6.15
2019-03-26T23:47:57.105Z,6.21
2019-03-26T23:48:57.094Z,6.25
2019-03-26T23:49:57.069Z,6.31
2019-03-26T23:50:57.084Z,6.38
2019-03-26T23:51:57.133Z,6.44
2019-03-26T23:52:57.077Z,6.49
2019-03-26T23:53:57.087Z,6.50
2019-03-26T23:54:57.120Z,6.50
2019-03-26T23:55:57.073Z,6.52
2019-03-26T23:56:57.095Z,6.54
2019-03-26T23:57:57.106Z,6.54
2019-03-26T23:58:57.074Z,6.53
2019-03-26T23:59:57.081Z,6.55
